Alagoinha, Brazil

5:03 AM BRST on October 21, 2014 (GMT -0200)
DEP. L. E. Magalhaes International | Change Station
CLOSE
Current Station
Airport
Location: Salvador Airport,
Elevation: 20 ft
Nearby Weather Stations

Elev 20 ft 12.91 °S, 38.33 °W | Updated 3 minutes ago

Scattered Clouds
Scattered Clouds
77 °F
Feels Like 77 °F
N
12
Wind Variable Wind from NE

Today
High -- | Low -- °F
--% Chance of Precip.
Yesterday
High -- | Low -- °F
Precip. -- in
6:06 AM 6:31 PM
Waning Crescent, 7% visible
Pressure 29.89 in
Visibility 6.2 miles
Clouds Scattered Clouds 1700 ft
Dew Point 70 °F
Humidity 78%
Rainfall 0.00 in
Snow Depth Not available.
UV 0 out of 12
Pollen Not available.
Air Quality Not available.
Flu Activity Not available.
METAR SBSV 210700Z 05010KT 9999 SCT017 25/21 Q1012

More Conditions Fewer Conditions

Pressure 29.89 in
Visibility 6.2 miles
Clouds Scattered Clouds 1700 ft
Dew Point 70 °F
Humidity 78%
Rainfall 0.00 in
Snow Depth Not available.
UV 0 out of 12
Pollen Not available.
Air Quality Not available.
Flu Activity Not available.
METAR SBSV 210700Z 05010KT 9999 SCT017 25/21 Q1012

More Conditions Fewer Conditions

10-Day Weather Forecast

Almanac

Astronomy

Oct. 21, 2014 Rise Set
Actual Time 6:06 AM BRST 6:31 PM BRST
Civil Twilight 5:44 AM BRST 6:53 PM BRST
Nautical Twilight 5:19 AM BRST 7:18 PM BRST
Astronomical Twilight 4:53 AM BRST 7:44 PM BRST
Moon 4:23 AM BRST 4:48 PM BRST
Length of Visible Light 13h 09m
Length of Day
12h 25m
Tomorrow will be 0m 39s longer.
Waning Crescent, 7% of the Moon is Illuminated
Today
Waning Crescent
Oct 23
New
Oct 30
First Quarter
Nov 6
Full
Nov 14
Last Quarter

Yesterday's Extremes

Country Highs Country Lows

Community

WunderPhotos

Upload Photos

1,763,619 photos uploaded!

Nearby

Snow Depth

Not available.

Earthquake Activity

City Distance Mag. Time & Date
No recent earthquake activity has been reported nearby.
Minimum magnitude displayed is 2.5.

Coastal Water Temperatures

Place Temperature
No Stations Reporting

Nearby Weather Stations